sensor_id;sensor_type;location;lat;lon;timestamp;temperature;humidity
42913;DHT22;50720;54.324;18.558;2024-01-15T00:01:09;2.10;99.90
42913;DHT22;50720;54.324;18.558;2024-01-15T00:03:59;2.00;99.90
42913;DHT22;50720;54.324;18.558;2024-01-15T00:06:31;2.00;99.90
42913;DHT22;50720;54.324;18.558;2024-01-15T00:09:02;2.00;99.90
42913;DHT22;50720;54.324;18.558;2024-01-15T00:11:32;2.00;99.90
42913;DHT22;50720;54.324;18.558;2024-01-15T00:14:02;2.00;99.90
42913;DHT22;50720;54.324;18.558;2024-01-15T00:16:32;1.90;99.90
42913;DHT22;50720;54.324;18.558;2024-01-15T00:19:02;1.90;99.90
42913;DHT22;50720;54.324;18.558;2024-01-15T00:21:34;1.80;99.90
42913;DHT22;50720;54.324;18.558;2024-01-15T00:24:04;1.80;99.90
42913;DHT22;50720;54.324;18.558;2024-01-15T00:26:34;1.80;99.90
42913;DHT22;50720;54.324;18.558;2024-01-15T00:29:06;1.70;99.90
42913;DHT22;50720;54.324;18.558;2024-01-15T00:31:36;1.70;99.90
42913;DHT22;50720;54.324;18.558;2024-01-15T00:34:06;1.70;99.90
42913;DHT22;50720;54.324;18.558;2024-01-15T00:36:38;1.70;99.90
42913;DHT22;50720;54.324;18.558;2024-01-15T00:39:08;1.70;99.90
42913;DHT22;50720;54.324;18.558;2024-01-15T00:41:38;1.70;99.90
42913;DHT22;50720;54.324;18.558;2024-01-15T00:44:09;1.70;99.90
42913;DHT22;50720;54.324;18.558;2024-01-15T00:46:43;1.70;99.90
42913;DHT22;50720;54.324;18.558;2024-01-15T00:49:14;1.70;99.90
42913;DHT22;50720;54.324;18.558;2024-01-15T00:51:47;1.70;99.90
42913;DHT22;50720;54.324;18.558;2024-01-15T00:54:17;1.70;99.90
42913;DHT22;50720;54.324;18.558;2024-01-15T00:56:47;1.70;99.90
42913;DHT22;50720;54.324;18.558;2024-01-15T00:59:17;1.80;99.90
42913;DHT22;50720;54.324;18.558;2024-01-15T01:01:48;1.80;99.90
42913;DHT22;50720;54.324;18.558;2024-01-15T01:04:19;1.80;99.90
42913;DHT22;50720;54.324;18.558;2024-01-15T01:06:50;1.80;99.90
42913;DHT22;50720;54.324;18.558;2024-01-15T01:09:20;1.90;99.90
42913;DHT22;50720;54.324;18.558;2024-01-15T01:11:50;1.90;99.90
42913;DHT22;50720;54.324;18.558;2024-01-15T01:14:20;1.90;99.90
42913;DHT22;50720;54.324;18.558;2024-01-15T01:16:50;1.80;99.90
42913;DHT22;50720;54.324;18.558;2024-01-15T01:19:20;1.80;99.90
42913;DHT22;50720;54.324;18.558;2024-01-15T01:21:52;1.80;99.90
42913;DHT22;50720;54.324;18.558;2024-01-15T01:24:22;1.80;99.90
42913;DHT22;50720;54.324;18.558;2024-01-15T01:26:52;1.80;99.90
42913;DHT22;50720;54.324;18.558;2024-01-15T01:29:22;1.70;99.90
42913;DHT22;50720;54.324;18.558;2024-01-15T01:31:52;1.70;99.90
42913;DHT22;50720;54.324;18.558;2024-01-15T01:34:22;1.70;99.90
42913;DHT22;50720;54.324;18.558;2024-01-15T01:36:54;1.70;99.90
42913;DHT22;50720;54.324;18.558;2024-01-15T01:39:24;1.70;99.90
42913;DHT22;50720;54.324;18.558;2024-01-15T01:41:54;1.60;99.90
42913;DHT22;50720;54.324;18.558;2024-01-15T01:44:24;1.60;99.90
42913;DHT22;50720;54.324;18.558;2024-01-15T01:46:54;1.60;99.90
42913;DHT22;50720;54.324;18.558;2024-01-15T01:49:25;1.60;99.90
42913;DHT22;50720;54.324;18.558;2024-01-15T01:51:58;1.60;99.90
42913;DHT22;50720;54.324;18.558;2024-01-15T01:54:31;1.70;99.90
42913;DHT22;50720;54.324;18.558;2024-01-15T01:57:03;1.70;99.90
42913;DHT22;50720;54.324;18.558;2024-01-15T01:59:35;1.70;99.90
42913;DHT22;50720;54.324;18.558;2024-01-15T02:02:06;1.70;99.90
42913;DHT22;50720;54.324;18.558;2024-01-15T02:04:36;1.70;99.90
42913;DHT22;50720;54.324;18.558;2024-01-15T02:07:08;1.80;99.90
42913;DHT22;50720;54.324;18.558;2024-01-15T02:09:38;1.70;99.90
42913;DHT22;50720;54.324;18.558;2024-01-15T02:12:08;1.70;99.90
42913;DHT22;50720;54.324;18.558;2024-01-15T02:14:39;1.80;99.90
42913;DHT22;50720;54.324;18.558;2024-01-15T02:17:09;1.70;99.90
42913;DHT22;50720;54.324;18.558;2024-01-15T02:19:39;1.70;99.90
42913;DHT22;50720;54.324;18.558;2024-01-15T02:22:11;1.70;99.90
42913;DHT22;50720;54.324;18.558;2024-01-15T02:24:42;1.60;99.90
42913;DHT22;50720;54.324;18.558;2024-01-15T02:27:12;1.60;99.90
42913;DHT22;50720;54.324;18.558;2024-01-15T02:29:43;1.50;99.90
42913;DHT22;50720;54.324;18.558;2024-01-15T02:32:13;1.50;99.90
42913;DHT22;50720;54.324;18.558;2024-01-15T02:34:43;1.50;99.90
42913;DHT22;50720;54.324;18.558;2024-01-15T02:37:13;1.50;99.90
42913;DHT22;50720;54.324;18.558;2024-01-15T02:39:45;1.50;99.90
42913;DHT22;50720;54.324;18.558;2024-01-15T02:42:15;1.50;99.90
42913;DHT22;50720;54.324;18.558;2024-01-15T02:44:45;1.50;99.90
42913;DHT22;50720;54.324;18.558;2024-01-15T02:47:16;1.50;99.90
42913;DHT22;50720;54.324;18.558;2024-01-15T02:49:46;1.40;99.90
42913;DHT22;50720;54.324;18.558;2024-01-15T02:52:16;1.40;99.90
42913;DHT22;50720;54.324;18.558;2024-01-15T02:54:48;1.40;99.90
42913;DHT22;50720;54.324;18.558;2024-01-15T02:57:18;1.30;99.90
42913;DHT22;50720;54.324;18.558;2024-01-15T02:59:48;1.40;99.90
42913;DHT22;50720;54.324;18.558;2024-01-15T03:02:18;1.30;99.90
42913;DHT22;50720;54.324;18.558;2024-01-15T03:04:48;1.30;99.90
42913;DHT22;50720;54.324;18.558;2024-01-15T03:07:18;1.30;99.90
42913;DHT22;50720;54.324;18.558;2024-01-15T03:09:50;1.30;99.90
42913;DHT22;50720;54.324;18.558;2024-01-15T03:12:20;1.30;99.90
42913;DHT22;50720;54.324;18.558;2024-01-15T03:14:50;1.30;99.90
42913;DHT22;50720;54.324;18.558;2024-01-15T03:17:20;1.30;99.90
42913;DHT22;50720;54.324;18.558;2024-01-15T03:19:50;1.30;99.90
42913;DHT22;50720;54.324;18.558;2024-01-15T03:22:20;1.30;99.90
42913;DHT22;50720;54.324;18.558;2024-01-15T03:24:52;1.30;99.90
42913;DHT22;50720;54.324;18.558;2024-01-15T03:27:22;1.30;99.90
42913;DHT22;50720;54.324;18.558;2024-01-15T03:29:54;1.30;99.90
42913;DHT22;50720;54.324;18.558;2024-01-15T03:32:24;1.30;99.90
42913;DHT22;50720;54.324;18.558;2024-01-15T03:34:54;1.30;99.90
42913;DHT22;50720;54.324;18.558;2024-01-15T03:37:24;1.30;99.90
42913;DHT22;50720;54.324;18.558;2024-01-15T03:39:56;1.30;99.90
42913;DHT22;50720;54.324;18.558;2024-01-15T03:42:26;1.30;99.90
42913;DHT22;50720;54.324;18.558;2024-01-15T03:44:56;1.30;99.90
42913;DHT22;50720;54.324;18.558;2024-01-15T03:47:26;1.30;99.90
42913;DHT22;50720;54.324;18.558;2024-01-15T03:49:57;1.20;99.90
42913;DHT22;50720;54.324;18.558;2024-01-15T03:52:27;1.20;99.90
42913;DHT22;50720;54.324;18.558;2024-01-15T03:54:58;1.20;99.90
42913;DHT22;50720;54.324;18.558;2024-01-15T03:57:28;1.20;99.90
42913;DHT22;50720;54.324;18.558;2024-01-15T03:59:58;1.20;99.90
42913;DHT22;50720;54.324;18.558;2024-01-15T04:02:28;1.20;99.90
42913;DHT22;50720;54.324;18.558;2024-01-15T04:04:59;1.20;99.90
42913;DHT22;50720;54.324;18.558;2024-01-15T04:07:29;1.20;99.90
42913;DHT22;50720;54.324;18.558;2024-01-15T04:10:01;1.20;99.90
42913;DHT22;50720;54.324;18.558;2024-01-15T04:12:31;1.20;99.90
42913;DHT22;50720;54.324;18.558;2024-01-15T04:15:02;1.20;99.90
42913;DHT22;50720;54.324;18.558;2024-01-15T04:17:32;1.20;99.90
42913;DHT22;50720;54.324;18.558;2024-01-15T04:20:02;1.20;99.90
42913;DHT22;50720;54.324;18.558;2024-01-15T04:22:33;1.20;99.90
42913;DHT22;50720;54.324;18.558;2024-01-15T04:25:05;1.20;99.90
42913;DHT22;50720;54.324;18.558;2024-01-15T04:27:35;1.20;99.90
42913;DHT22;50720;54.324;18.558;2024-01-15T04:30:07;1.20;99.90
42913;DHT22;50720;54.324;18.558;2024-01-15T04:32:36;1.20;99.90
42913;DHT22;50720;54.324;18.558;2024-01-15T04:35:07;1.20;99.90
42913;DHT22;50720;54.324;18.558;2024-01-15T04:37:36;1.20;99.90
42913;DHT22;50720;54.324;18.558;2024-01-15T04:40:09;1.20;99.90
42913;DHT22;50720;54.324;18.558;2024-01-15T04:42:39;1.20;99.90
42913;DHT22;50720;54.324;18.558;2024-01-15T04:45:10;1.20;99.90
42913;DHT22;50720;54.324;18.558;2024-01-15T04:47:40;1.20;99.90
42913;DHT22;50720;54.324;18.558;2024-01-15T04:50:11;1.20;99.90
42913;DHT22;50720;54.324;18.558;2024-01-15T04:52:40;1.20;99.90
42913;DHT22;50720;54.324;18.558;2024-01-15T04:55:12;1.20;99.90
42913;DHT22;50720;54.324;18.558;2024-01-15T04:57:42;1.20;99.90
42913;DHT22;50720;54.324;18.558;2024-01-15T05:00:13;1.10;99.90
42913;DHT22;50720;54.324;18.558;2024-01-15T05:02:43;1.20;99.90
42913;DHT22;50720;54.324;18.558;2024-01-15T05:05:14;1.20;99.90
42913;DHT22;50720;54.324;18.558;2024-01-15T05:07:43;1.20;99.90
42913;DHT22;50720;54.324;18.558;2024-01-15T05:10:15;1.10;99.90
42913;DHT22;50720;54.324;18.558;2024-01-15T05:12:45;1.20;99.90
42913;DHT22;50720;54.324;18.558;2024-01-15T05:15:16;1.20;99.90
42913;DHT22;50720;54.324;18.558;2024-01-15T05:17:46;1.20;99.90
42913;DHT22;50720;54.324;18.558;2024-01-15T05:20:16;1.20;99.90
42913;DHT22;50720;54.324;18.558;2024-01-15T05:22:46;1.20;99.90
42913;DHT22;50720;54.324;18.558;2024-01-15T05:25:18;1.20;99.90
42913;DHT22;50720;54.324;18.558;2024-01-15T05:27:48;1.10;99.90
42913;DHT22;50720;54.324;18.558;2024-01-15T05:30:18;1.10;99.90
42913;DHT22;50720;54.324;18.558;2024-01-15T05:32:48;1.10;99.90
42913;DHT22;50720;54.324;18.558;2024-01-15T05:35:18;1.00;99.90
42913;DHT22;50720;54.324;18.558;2024-01-15T05:37:48;1.00;99.90
42913;DHT22;50720;54.324;18.558;2024-01-15T05:40:20;1.10;99.90
42913;DHT22;50720;54.324;18.558;2024-01-15T05:42:50;1.10;99.90
42913;DHT22;50720;54.324;18.558;2024-01-15T05:45:20;1.10;99.90
42913;DHT22;50720;54.324;18.558;2024-01-15T05:47:50;1.10;99.90
42913;DHT22;50720;54.324;18.558;2024-01-15T05:50:21;1.10;99.90
42913;DHT22;50720;54.324;18.558;2024-01-15T05:52:51;1.00;99.90
42913;DHT22;50720;54.324;18.558;2024-01-15T05:55:23;1.00;99.90
42913;DHT22;50720;54.324;18.558;2024-01-15T05:57:53;0.90;99.90
42913;DHT22;50720;54.324;18.558;2024-01-15T06:00:23;0.80;99.90
42913;DHT22;50720;54.324;18.558;2024-01-15T06:02:53;0.80;99.90
42913;DHT22;50720;54.324;18.558;2024-01-15T06:05:23;0.80;99.90
42913;DHT22;50720;54.324;18.558;2024-01-15T06:07:53;0.70;99.90
42913;DHT22;50720;54.324;18.558;2024-01-15T06:10:25;0.70;99.90
42913;DHT22;50720;54.324;18.558;2024-01-15T06:12:54;0.70;99.90
42913;DHT22;50720;54.324;18.558;2024-01-15T06:15:25;0.70;99.90
42913;DHT22;50720;54.324;18.558;2024-01-15T06:17:55;0.70;99.90
42913;DHT22;50720;54.324;18.558;2024-01-15T06:20:25;0.70;99.90
42913;DHT22;50720;54.324;18.558;2024-01-15T06:22:55;0.60;99.90
42913;DHT22;50720;54.324;18.558;2024-01-15T06:25:26;0.60;99.90
42913;DHT22;50720;54.324;18.558;2024-01-15T06:27:56;0.60;99.90
42913;DHT22;50720;54.324;18.558;2024-01-15T06:30:27;0.70;99.90
42913;DHT22;50720;54.324;18.558;2024-01-15T06:32:58;0.70;99.90
42913;DHT22;50720;54.324;18.558;2024-01-15T06:35:28;0.70;99.90
42913;DHT22;50720;54.324;18.558;2024-01-15T06:37:58;0.70;99.90
42913;DHT22;50720;54.324;18.558;2024-01-15T06:40:30;0.70;99.90
42913;DHT22;50720;54.324;18.558;2024-01-15T06:42:59;0.70;99.90
42913;DHT22;50720;54.324;18.558;2024-01-15T06:45:30;0.70;99.90
42913;DHT22;50720;54.324;18.558;2024-01-15T06:48:00;0.70;99.90
42913;DHT22;50720;54.324;18.558;2024-01-15T06:50:30;0.70;99.90
42913;DHT22;50720;54.324;18.558;2024-01-15T06:53:00;0.60;99.90
42913;DHT22;50720;54.324;18.558;2024-01-15T06:55:31;0.60;99.90
42913;DHT22;50720;54.324;18.558;2024-01-15T06:58:01;0.60;99.90
42913;DHT22;50720;54.324;18.558;2024-01-15T07:00:31;0.60;99.90
42913;DHT22;50720;54.324;18.558;2024-01-15T07:03:02;0.60;99.90
42913;DHT22;50720;54.324;18.558;2024-01-15T07:05:32;0.60;99.90
42913;DHT22;50720;54.324;18.558;2024-01-15T07:08:02;0.60;99.90
42913;DHT22;50720;54.324;18.558;2024-01-15T07:10:34;0.60;99.90
42913;DHT22;50720;54.324;18.558;2024-01-15T07:13:04;0.60;99.90
42913;DHT22;50720;54.324;18.558;2024-01-15T07:15:34;0.60;99.90
42913;DHT22;50720;54.324;18.558;2024-01-15T07:18:05;0.60;99.90
42913;DHT22;50720;54.324;18.558;2024-01-15T07:20:35;0.60;99.90
42913;DHT22;50720;54.324;18.558;2024-01-15T07:23:05;0.70;99.90
42913;DHT22;50720;54.324;18.558;2024-01-15T07:25:36;0.70;99.90
42913;DHT22;50720;54.324;18.558;2024-01-15T07:28:06;0.60;99.90
42913;DHT22;50720;54.324;18.558;2024-01-15T07:30:37;0.60;99.90
42913;DHT22;50720;54.324;18.558;2024-01-15T07:33:07;0.60;99.90
42913;DHT22;50720;54.324;18.558;2024-01-15T07:35:38;0.60;99.90
42913;DHT22;50720;54.324;18.558;2024-01-15T07:38:08;0.60;99.90
42913;DHT22;50720;54.324;18.558;2024-01-15T07:40:41;0.60;99.90
42913;DHT22;50720;54.324;18.558;2024-01-15T07:43:11;0.70;99.90
42913;DHT22;50720;54.324;18.558;2024-01-15T07:45:42;0.70;99.90
42913;DHT22;50720;54.324;18.558;2024-01-15T07:48:13;0.70;99.90
42913;DHT22;50720;54.324;18.558;2024-01-15T07:50:43;0.70;99.90
42913;DHT22;50720;54.324;18.558;2024-01-15T07:53:13;0.80;99.90
42913;DHT22;50720;54.324;18.558;2024-01-15T07:55:45;0.80;99.90
42913;DHT22;50720;54.324;18.558;2024-01-15T07:58:15;0.90;99.90
42913;DHT22;50720;54.324;18.558;2024-01-15T08:00:46;0.90;99.90
42913;DHT22;50720;54.324;18.558;2024-01-15T08:03:16;1.00;99.90
42913;DHT22;50720;54.324;18.558;2024-01-15T08:05:46;1.00;99.90
42913;DHT22;50720;54.324;18.558;2024-01-15T08:08:18;1.10;99.90
42913;DHT22;50720;54.324;18.558;2024-01-15T08:10:51;1.10;99.90
42913;DHT22;50720;54.324;18.558;2024-01-15T08:13:21;1.10;99.90
42913;DHT22;50720;54.324;18.558;2024-01-15T08:15:51;1.20;99.90
42913;DHT22;50720;54.324;18.558;2024-01-15T08:18:21;1.20;99.90
42913;DHT22;50720;54.324;18.558;2024-01-15T08:20:51;1.20;99.90
42913;DHT22;50720;54.324;18.558;2024-01-15T08:23:22;1.30;99.90
42913;DHT22;50720;54.324;18.558;2024-01-15T08:25:54;1.20;99.90
42913;DHT22;50720;54.324;18.558;2024-01-15T08:28:24;1.20;99.90
42913;DHT22;50720;54.324;18.558;2024-01-15T08:30:54;1.20;99.90
42913;DHT22;50720;54.324;18.558;2024-01-15T08:33:24;1.20;99.90
42913;DHT22;50720;54.324;18.558;2024-01-15T08:35:54;1.30;99.90
42913;DHT22;50720;54.324;18.558;2024-01-15T08:38:24;1.30;99.90
42913;DHT22;50720;54.324;18.558;2024-01-15T08:40:56;1.40;99.90
42913;DHT22;50720;54.324;18.558;2024-01-15T08:43:28;1.50;99.90
42913;DHT22;50720;54.324;18.558;2024-01-15T08:45:59;1.50;99.90
42913;DHT22;50720;54.324;18.558;2024-01-15T08:48:29;1.50;99.90
42913;DHT22;50720;54.324;18.558;2024-01-15T08:50:59;1.60;99.90
42913;DHT22;50720;54.324;18.558;2024-01-15T08:53:29;1.60;99.90
42913;DHT22;50720;54.324;18.558;2024-01-15T08:56:01;1.60;99.90
42913;DHT22;50720;54.324;18.558;2024-01-15T08:58:31;1.70;99.90
42913;DHT22;50720;54.324;18.558;2024-01-15T09:01:01;1.60;99.90
42913;DHT22;50720;54.324;18.558;2024-01-15T09:03:31;1.70;99.90
42913;DHT22;50720;54.324;18.558;2024-01-15T09:06:02;1.70;99.90
42913;DHT22;50720;54.324;18.558;2024-01-15T09:08:32;1.70;99.90
42913;DHT22;50720;54.324;18.558;2024-01-15T09:11:04;1.80;99.90
42913;DHT22;50720;54.324;18.558;2024-01-15T09:13:34;1.80;99.90
42913;DHT22;50720;54.324;18.558;2024-01-15T09:16:04;1.70;99.90
42913;DHT22;50720;54.324;18.558;2024-01-15T09:18:34;1.70;99.90
42913;DHT22;50720;54.324;18.558;2024-01-15T09:21:05;1.70;99.90
42913;DHT22;50720;54.324;18.558;2024-01-15T09:23:35;1.60;99.90
42913;DHT22;50720;54.324;18.558;2024-01-15T09:26:08;1.60;99.90
42913;DHT22;50720;54.324;18.558;2024-01-15T09:28:38;1.60;99.90
42913;DHT22;50720;54.324;18.558;2024-01-15T09:31:08;1.50;99.90
42913;DHT22;50720;54.324;18.558;2024-01-15T09:33:38;1.60;99.90
42913;DHT22;50720;54.324;18.558;2024-01-15T09:36:09;1.70;99.90
42913;DHT22;50720;54.324;18.558;2024-01-15T09:38:40;1.80;99.90
42913;DHT22;50720;54.324;18.558;2024-01-15T09:41:12;1.80;99.90
42913;DHT22;50720;54.324;18.558;2024-01-15T09:43:43;1.80;99.90
42913;DHT22;50720;54.324;18.558;2024-01-15T09:46:13;1.80;99.90
42913;DHT22;50720;54.324;18.558;2024-01-15T09:48:43;1.80;99.90
42913;DHT22;50720;54.324;18.558;2024-01-15T09:51:14;1.90;99.90
42913;DHT22;50720;54.324;18.558;2024-01-15T09:53:45;1.80;99.90
42913;DHT22;50720;54.324;18.558;2024-01-15T09:56:17;1.90;99.90
42913;DHT22;50720;54.324;18.558;2024-01-15T09:58:48;1.90;99.90
42913;DHT22;50720;54.324;18.558;2024-01-15T10:01:25;1.90;99.90
42913;DHT22;50720;54.324;18.558;2024-01-15T10:04:03;2.00;99.90
42913;DHT22;50720;54.324;18.558;2024-01-15T10:06:35;2.10;99.90
42913;DHT22;50720;54.324;18.558;2024-01-15T10:09:06;2.20;99.90
42913;DHT22;50720;54.324;18.558;2024-01-15T10:11:38;2.20;99.90
42913;DHT22;50720;54.324;18.558;2024-01-15T10:14:09;2.30;99.90
42913;DHT22;50720;54.324;18.558;2024-01-15T10:16:41;2.30;99.90
42913;DHT22;50720;54.324;18.558;2024-01-15T10:19:11;2.30;99.90
42913;DHT22;50720;54.324;18.558;2024-01-15T10:21:41;2.30;99.90
42913;DHT22;50720;54.324;18.558;2024-01-15T10:24:12;2.30;99.90
42913;DHT22;50720;54.324;18.558;2024-01-15T10:26:44;2.30;99.90
42913;DHT22;50720;54.324;18.558;2024-01-15T10:29:15;2.30;99.90
42913;DHT22;50720;54.324;18.558;2024-01-15T10:31:45;2.20;99.90
42913;DHT22;50720;54.324;18.558;2024-01-15T10:34:15;2.20;99.90
42913;DHT22;50720;54.324;18.558;2024-01-15T10:36:46;2.10;99.90
42913;DHT22;50720;54.324;18.558;2024-01-15T10:39:21;2.10;99.90
42913;DHT22;50720;54.324;18.558;2024-01-15T10:41:52;2.10;99.90
42913;DHT22;50720;54.324;18.558;2024-01-15T10:44:22;2.10;99.90
42913;DHT22;50720;54.324;18.558;2024-01-15T10:46:53;2.20;99.90
42913;DHT22;50720;54.324;18.558;2024-01-15T10:49:24;2.40;99.90
42913;DHT22;50720;54.324;18.558;2024-01-15T10:52:01;2.30;99.90
42913;DHT22;50720;54.324;18.558;2024-01-15T10:54:32;2.20;99.90
42913;DHT22;50720;54.324;18.558;2024-01-15T10:57:04;1.80;99.90
42913;DHT22;50720;54.324;18.558;2024-01-15T10:59:35;1.50;99.90
42913;DHT22;50720;54.324;18.558;2024-01-15T11:02:06;1.30;99.90
42913;DHT22;50720;54.324;18.558;2024-01-15T11:04:37;1.30;99.90
42913;DHT22;50720;54.324;18.558;2024-01-15T11:07:07;1.30;99.90
42913;DHT22;50720;54.324;18.558;2024-01-15T11:09:39;1.30;99.90
42913;DHT22;50720;54.324;18.558;2024-01-15T11:12:13;1.20;99.90
42913;DHT22;50720;54.324;18.558;2024-01-15T11:14:46;1.20;99.90
42913;DHT22;50720;54.324;18.558;2024-01-15T11:17:18;1.00;99.90
42913;DHT22;50720;54.324;18.558;2024-01-15T11:19:48;1.00;99.90
42913;DHT22;50720;54.324;18.558;2024-01-15T11:22:49;1.10;99.90
42913;DHT22;50720;54.324;18.558;2024-01-15T11:25:20;1.20;99.90
42913;DHT22;50720;54.324;18.558;2024-01-15T11:27:53;1.40;99.90
42913;DHT22;50720;54.324;18.558;2024-01-15T11:30:25;1.80;99.90
42913;DHT22;50720;54.324;18.558;2024-01-15T11:32:56;2.30;99.90
42913;DHT22;50720;54.324;18.558;2024-01-15T11:35:49;2.70;99.90
42913;DHT22;50720;54.324;18.558;2024-01-15T11:38:27;3.40;99.90
42913;DHT22;50720;54.324;18.558;2024-01-15T11:40:59;3.30;1.00
42913;DHT22;50720;54.324;18.558;2024-01-15T11:43:32;3.20;1.00
42913;DHT22;50720;54.324;18.558;2024-01-15T11:46:04;3.10;1.00
42913;DHT22;50720;54.324;18.558;2024-01-15T11:48:46;2.50;99.90
42913;DHT22;50720;54.324;18.558;2024-01-15T11:51:19;2.00;99.90
42913;DHT22;50720;54.324;18.558;2024-01-15T11:53:53;1.80;99.90
42913;DHT22;50720;54.324;18.558;2024-01-15T11:56:25;1.50;99.90
42913;DHT22;50720;54.324;18.558;2024-01-15T11:58:57;1.40;99.90
42913;DHT22;50720;54.324;18.558;2024-01-15T12:01:31;1.30;99.90
42913;DHT22;50720;54.324;18.558;2024-01-15T12:04:01;1.30;99.90
42913;DHT22;50720;54.324;18.558;2024-01-15T12:06:32;1.20;99.90
42913;DHT22;50720;54.324;18.558;2024-01-15T12:09:06;1.10;99.90
42913;DHT22;50720;54.324;18.558;2024-01-15T12:11:37;1.10;99.90
42913;DHT22;50720;54.324;18.558;2024-01-15T12:14:10;1.00;99.90
42913;DHT22;50720;54.324;18.558;2024-01-15T12:16:40;0.90;99.90
42913;DHT22;50720;54.324;18.558;2024-01-15T12:19:10;0.90;99.90
42913;DHT22;50720;54.324;18.558;2024-01-15T12:21:41;0.80;99.90
42913;DHT22;50720;54.324;18.558;2024-01-15T12:24:11;0.70;99.90
42913;DHT22;50720;54.324;18.558;2024-01-15T12:26:41;0.70;99.90
42913;DHT22;50720;54.324;18.558;2024-01-15T12:29:13;0.70;99.90
42913;DHT22;50720;54.324;18.558;2024-01-15T12:31:42;0.70;99.90
42913;DHT22;50720;54.324;18.558;2024-01-15T12:34:13;0.60;99.90
42913;DHT22;50720;54.324;18.558;2024-01-15T12:36:43;0.70;99.90
42913;DHT22;50720;54.324;18.558;2024-01-15T12:39:17;0.70;99.90
42913;DHT22;50720;54.324;18.558;2024-01-15T12:41:47;0.70;99.90
42913;DHT22;50720;54.324;18.558;2024-01-15T12:44:19;0.80;99.90
42913;DHT22;50720;54.324;18.558;2024-01-15T12:46:49;0.90;99.90
42913;DHT22;50720;54.324;18.558;2024-01-15T12:49:19;0.90;99.90
42913;DHT22;50720;54.324;18.558;2024-01-15T12:51:52;0.70;99.90
42913;DHT22;50720;54.324;18.558;2024-01-15T12:54:23;0.60;99.90
42913;DHT22;50720;54.324;18.558;2024-01-15T12:56:53;0.50;99.90
42913;DHT22;50720;54.324;18.558;2024-01-15T12:59:25;0.50;99.90
42913;DHT22;50720;54.324;18.558;2024-01-15T13:01:55;0.50;99.90
42913;DHT22;50720;54.324;18.558;2024-01-15T13:04:25;0.50;99.90
42913;DHT22;50720;54.324;18.558;2024-01-15T13:06:55;0.50;99.90
42913;DHT22;50720;54.324;18.558;2024-01-15T13:09:25;0.60;99.90
42913;DHT22;50720;54.324;18.558;2024-01-15T13:11:55;0.50;99.90
42913;DHT22;50720;54.324;18.558;2024-01-15T13:14:27;0.50;99.90
42913;DHT22;50720;54.324;18.558;2024-01-15T13:16:58;0.50;99.90
42913;DHT22;50720;54.324;18.558;2024-01-15T13:19:29;0.50;99.90
42913;DHT22;50720;54.324;18.558;2024-01-15T13:22:00;0.50;99.90
42913;DHT22;50720;54.324;18.558;2024-01-15T13:24:30;0.40;99.90
42913;DHT22;50720;54.324;18.558;2024-01-15T13:27:00;0.40;99.90
42913;DHT22;50720;54.324;18.558;2024-01-15T13:29:31;0.40;99.90
42913;DHT22;50720;54.324;18.558;2024-01-15T13:32:02;0.40;99.90
42913;DHT22;50720;54.324;18.558;2024-01-15T13:34:33;0.30;99.90
42913;DHT22;50720;54.324;18.558;2024-01-15T13:37:04;0.50;99.90
42913;DHT22;50720;54.324;18.558;2024-01-15T13:39:34;0.60;99.90
42913;DHT22;50720;54.324;18.558;2024-01-15T13:42:05;0.60;99.90
42913;DHT22;50720;54.324;18.558;2024-01-15T13:44:36;0.60;99.90
42913;DHT22;50720;54.324;18.558;2024-01-15T13:47:06;0.50;99.90
42913;DHT22;50720;54.324;18.558;2024-01-15T13:49:37;0.50;99.90
42913;DHT22;50720;54.324;18.558;2024-01-15T13:52:07;0.40;99.90
42913;DHT22;50720;54.324;18.558;2024-01-15T13:54:37;0.40;99.90
42913;DHT22;50720;54.324;18.558;2024-01-15T13:57:17;0.40;99.90
42913;DHT22;50720;54.324;18.558;2024-01-15T13:59:50;0.30;99.90
42913;DHT22;50720;54.324;18.558;2024-01-15T14:02:20;0.20;99.90
42913;DHT22;50720;54.324;18.558;2024-01-15T14:04:52;0.20;99.90
42913;DHT22;50720;54.324;18.558;2024-01-15T14:07:22;0.20;99.90
42913;DHT22;50720;54.324;18.558;2024-01-15T14:09:52;0.20;99.90
42913;DHT22;50720;54.324;18.558;2024-01-15T14:12:22;0.20;99.90
42913;DHT22;50720;54.324;18.558;2024-01-15T14:14:56;0.20;99.90
42913;DHT22;50720;54.324;18.558;2024-01-15T14:17:27;0.20;99.90
42913;DHT22;50720;54.324;18.558;2024-01-15T14:19:57;0.20;99.90
42913;DHT22;50720;54.324;18.558;2024-01-15T14:22:27;0.20;99.90
42913;DHT22;50720;54.324;18.558;2024-01-15T14:24:57;0.20;99.90
42913;DHT22;50720;54.324;18.558;2024-01-15T14:27:27;0.20;99.90
42913;DHT22;50720;54.324;18.558;2024-01-15T14:29:59;0.20;99.90
42913;DHT22;50720;54.324;18.558;2024-01-15T14:32:29;0.20;99.90
42913;DHT22;50720;54.324;18.558;2024-01-15T14:34:59;0.20;99.90
42913;DHT22;50720;54.324;18.558;2024-01-15T14:37:30;0.20;99.90
42913;DHT22;50720;54.324;18.558;2024-01-15T14:40:00;0.10;99.90
42913;DHT22;50720;54.324;18.558;2024-01-15T14:42:31;0.10;99.90
42913;DHT22;50720;54.324;18.558;2024-01-15T14:45:03;0.10;99.90
42913;DHT22;50720;54.324;18.558;2024-01-15T14:47:40;0.00;99.90
42913;DHT22;50720;54.324;18.558;2024-01-15T14:50:12;0.00;99.90
42913;DHT22;50720;54.324;18.558;2024-01-15T14:52:42;-0.10;99.90
42913;DHT22;50720;54.324;18.558;2024-01-15T14:55:13;-0.10;99.90
42913;DHT22;50720;54.324;18.558;2024-01-15T14:57:43;-0.10;99.90
42913;DHT22;50720;54.324;18.558;2024-01-15T15:00:15;-0.10;99.90
42913;DHT22;50720;54.324;18.558;2024-01-15T15:02:45;-0.20;99.90
42913;DHT22;50720;54.324;18.558;2024-01-15T15:05:15;-0.20;99.90
42913;DHT22;50720;54.324;18.558;2024-01-15T15:07:46;-0.20;99.90
42913;DHT22;50720;54.324;18.558;2024-01-15T15:10:16;-0.20;99.90
42913;DHT22;50720;54.324;18.558;2024-01-15T15:12:46;-0.20;99.90
42913;DHT22;50720;54.324;18.558;2024-01-15T15:15:18;-0.20;99.90
42913;DHT22;50720;54.324;18.558;2024-01-15T15:17:50;-0.20;99.90
42913;DHT22;50720;54.324;18.558;2024-01-15T15:20:20;-0.20;99.90
42913;DHT22;50720;54.324;18.558;2024-01-15T15:22:50;-0.20;99.90
42913;DHT22;50720;54.324;18.558;2024-01-15T15:25:23;-0.20;99.90
42913;DHT22;50720;54.324;18.558;2024-01-15T15:27:53;-0.10;99.90
42913;DHT22;50720;54.324;18.558;2024-01-15T15:30:25;-0.10;99.90
42913;DHT22;50720;54.324;18.558;2024-01-15T15:32:55;-0.10;99.90
42913;DHT22;50720;54.324;18.558;2024-01-15T15:35:26;0.00;99.90
42913;DHT22;50720;54.324;18.558;2024-01-15T15:37:56;0.00;99.90
42913;DHT22;50720;54.324;18.558;2024-01-15T15:40:26;0.00;99.90
42913;DHT22;50720;54.324;18.558;2024-01-15T15:42:56;0.00;99.90
42913;DHT22;50720;54.324;18.558;2024-01-15T15:45:27;0.00;99.90
42913;DHT22;50720;54.324;18.558;2024-01-15T15:47:57;0.00;99.90
42913;DHT22;50720;54.324;18.558;2024-01-15T15:50:28;0.00;99.90
42913;DHT22;50720;54.324;18.558;2024-01-15T15:53:01;0.00;99.90